sensor_id;sensor_type;location;lat;lon;timestamp;P1;durP1;ratioP1;P2;durP2;ratioP2
64157;SDS011;50449;51.528;5.076;2022-08-04T00:00:29;102.30;;;97.72;;
64157;SDS011;50449;51.528;5.076;2022-08-04T00:05:51;100.63;;;95.93;;
64157;SDS011;50449;51.528;5.076;2022-08-04T00:10:59;100.57;;;95.97;;
64157;SDS011;50449;51.528;5.076;2022-08-04T00:13:26;103.22;;;97.88;;
64157;SDS011;50449;51.528;5.076;2022-08-04T00:18:28;99.50;;;94.65;;
64157;SDS011;50449;51.528;5.076;2022-08-04T00:21:02;96.32;;;91.07;;
64157;SDS011;50449;51.528;5.076;2022-08-04T00:23:29;99.07;;;94.05;;
64157;SDS011;50449;51.528;5.076;2022-08-04T00:25:59;97.30;;;92.65;;
64157;SDS011;50449;51.528;5.076;2022-08-04T00:28:26;100.53;;;95.78;;
64157;SDS011;50449;51.528;5.076;2022-08-04T00:30:52;102.15;;;96.93;;
64157;SDS011;50449;51.528;5.076;2022-08-04T00:33:18;97.05;;;92.35;;
64157;SDS011;50449;51.528;5.076;2022-08-04T00:35:45;99.35;;;94.72;;
64157;SDS011;50449;51.528;5.076;2022-08-04T00:38:12;95.47;;;91.07;;
64157;SDS011;50449;51.528;5.076;2022-08-04T00:40:46;99.40;;;94.70;;
64157;SDS011;50449;51.528;5.076;2022-08-04T00:43:23;98.18;;;93.10;;
64157;SDS011;50449;51.528;5.076;2022-08-04T00:59:43;94.50;;;89.90;;
64157;SDS011;50449;51.528;5.076;2022-08-04T01:02:27;95.40;;;90.38;;
64157;SDS011;50449;51.528;5.076;2022-08-04T01:16:05;95.32;;;90.93;;
64157;SDS011;50449;51.528;5.076;2022-08-04T01:26:39;95.60;;;90.63;;
64157;SDS011;50449;51.528;5.076;2022-08-04T01:29:13;93.88;;;88.68;;
64157;SDS011;50449;51.528;5.076;2022-08-04T01:34:48;93.47;;;88.82;;
64157;SDS011;50449;51.528;5.076;2022-08-04T01:40:33;94.38;;;89.72;;
64157;SDS011;50449;51.528;5.076;2022-08-04T01:43:01;94.38;;;89.85;;
64157;SDS011;50449;51.528;5.076;2022-08-04T01:45:28;92.20;;;87.90;;
64157;SDS011;50449;51.528;5.076;2022-08-04T01:47:55;92.40;;;88.20;;
64157;SDS011;50449;51.528;5.076;2022-08-04T01:50:22;93.72;;;89.43;;
64157;SDS011;50449;51.528;5.076;2022-08-04T01:52:49;92.95;;;88.50;;
64157;SDS011;50449;51.528;5.076;2022-08-04T01:55:18;93.95;;;89.75;;
64157;SDS011;50449;51.528;5.076;2022-08-04T01:57:47;95.38;;;90.88;;
64157;SDS011;50449;51.528;5.076;2022-08-04T02:00:16;94.57;;;89.68;;
64157;SDS011;50449;51.528;5.076;2022-08-04T02:02:46;92.05;;;87.75;;
64157;SDS011;50449;51.528;5.076;2022-08-04T02:05:14;91.53;;;87.20;;
64157;SDS011;50449;51.528;5.076;2022-08-04T02:10:17;94.78;;;89.93;;
64157;SDS011;50449;51.528;5.076;2022-08-04T02:12:57;96.10;;;91.65;;
64157;SDS011;50449;51.528;5.076;2022-08-04T02:15:29;95.25;;;90.47;;
64157;SDS011;50449;51.528;5.076;2022-08-04T02:18:04;96.15;;;91.38;;
64157;SDS011;50449;51.528;5.076;2022-08-04T02:20:37;86.60;;;82.03;;
64157;SDS011;50449;51.528;5.076;2022-08-04T02:23:06;88.20;;;84.00;;
64157;SDS011;50449;51.528;5.076;2022-08-04T02:25:38;87.65;;;83.45;;
64157;SDS011;50449;51.528;5.076;2022-08-04T02:28:28;92.35;;;87.95;;
64157;SDS011;50449;51.528;5.076;2022-08-04T02:31:02;87.50;;;83.03;;
64157;SDS011;50449;51.528;5.076;2022-08-04T02:33:38;86.65;;;82.45;;
64157;SDS011;50449;51.528;5.076;2022-08-04T02:36:08;89.03;;;84.80;;
64157;SDS011;50449;51.528;5.076;2022-08-04T02:41:22;89.30;;;84.90;;
64157;SDS011;50449;51.528;5.076;2022-08-04T02:43:49;89.80;;;84.70;;
64157;SDS011;50449;51.528;5.076;2022-08-04T02:46:18;91.13;;;86.90;;
64157;SDS011;50449;51.528;5.076;2022-08-04T02:48:45;89.20;;;84.70;;
64157;SDS011;50449;51.528;5.076;2022-08-04T02:51:12;90.13;;;85.80;;
64157;SDS011;50449;51.528;5.076;2022-08-04T02:53:41;88.00;;;83.72;;
64157;SDS011;50449;51.528;5.076;2022-08-04T02:56:08;90.00;;;85.75;;
64157;SDS011;50449;51.528;5.076;2022-08-04T02:58:35;87.72;;;83.32;;
64157;SDS011;50449;51.528;5.076;2022-08-04T03:01:01;90.63;;;86.03;;
64157;SDS011;50449;51.528;5.076;2022-08-04T03:12:39;89.88;;;85.25;;
64157;SDS011;50449;51.528;5.076;2022-08-04T03:23:12;86.63;;;82.65;;
64157;SDS011;50449;51.528;5.076;2022-08-04T03:37:18;84.60;;;80.30;;
64157;SDS011;50449;51.528;5.076;2022-08-04T03:47:54;87.53;;;83.23;;
64157;SDS011;50449;51.528;5.076;2022-08-04T03:50:54;85.03;;;81.00;;
64157;SDS011;50449;51.528;5.076;2022-08-04T03:53:53;85.70;;;81.50;;
64157;SDS011;50449;51.528;5.076;2022-08-04T03:56:32;87.93;;;83.63;;
64157;SDS011;50449;51.528;5.076;2022-08-04T04:05:19;84.47;;;80.13;;
64157;SDS011;50449;51.528;5.076;2022-08-04T04:08:33;83.30;;;79.20;;
64157;SDS011;50449;51.528;5.076;2022-08-04T04:22:59;85.40;;;81.38;;
64157;SDS011;50449;51.528;5.076;2022-08-04T04:30:54;85.35;;;81.15;;
64157;SDS011;50449;51.528;5.076;2022-08-04T04:36:28;80.80;;;76.85;;
64157;SDS011;50449;51.528;5.076;2022-08-04T04:49:47;82.35;;;78.15;;
64157;SDS011;50449;51.528;5.076;2022-08-04T04:57:20;83.38;;;78.97;;
64157;SDS011;50449;51.528;5.076;2022-08-04T04:59:49;82.20;;;78.30;;
64157;SDS011;50449;51.528;5.076;2022-08-04T05:14:10;81.55;;;77.43;;
64157;SDS011;50449;51.528;5.076;2022-08-04T05:19:50;82.22;;;77.72;;
64157;SDS011;50449;51.528;5.076;2022-08-04T05:22:26;79.75;;;75.75;;
64157;SDS011;50449;51.528;5.076;2022-08-04T05:25:18;80.30;;;76.10;;
64157;SDS011;50449;51.528;5.076;2022-08-04T05:27:51;78.78;;;74.80;;
64157;SDS011;50449;51.528;5.076;2022-08-04T05:30:23;83.07;;;78.82;;
64157;SDS011;50449;51.528;5.076;2022-08-04T05:32:55;80.43;;;76.38;;
64157;SDS011;50449;51.528;5.076;2022-08-04T05:35:29;80.82;;;76.80;;
64157;SDS011;50449;51.528;5.076;2022-08-04T05:37:58;82.85;;;78.00;;
64157;SDS011;50449;51.528;5.076;2022-08-04T05:40:27;81.25;;;77.28;;
64157;SDS011;50449;51.528;5.076;2022-08-04T05:42:54;80.38;;;76.30;;
64157;SDS011;50449;51.528;5.076;2022-08-04T05:45:21;77.70;;;73.80;;
64157;SDS011;50449;51.528;5.076;2022-08-04T05:47:49;76.68;;;72.93;;
64157;SDS011;50449;51.528;5.076;2022-08-04T05:50:17;74.85;;;71.15;;
64157;SDS011;50449;51.528;5.076;2022-08-04T05:52:44;81.80;;;77.80;;
64157;SDS011;50449;51.528;5.076;2022-08-04T05:55:10;81.13;;;77.13;;
64157;SDS011;50449;51.528;5.076;2022-08-04T05:57:40;79.47;;;74.93;;
64157;SDS011;50449;51.528;5.076;2022-08-04T06:00:06;83.90;;;79.75;;
64157;SDS011;50449;51.528;5.076;2022-08-04T06:02:33;78.18;;;73.78;;
64157;SDS011;50449;51.528;5.076;2022-08-04T06:04:59;80.80;;;76.43;;
64157;SDS011;50449;51.528;5.076;2022-08-04T06:07:26;77.68;;;74.00;;
64157;SDS011;50449;51.528;5.076;2022-08-04T06:09:53;77.68;;;73.78;;
64157;SDS011;50449;51.528;5.076;2022-08-04T06:12:52;75.90;;;72.25;;
64157;SDS011;50449;51.528;5.076;2022-08-04T06:15:17;80.97;;;76.73;;
64157;SDS011;50449;51.528;5.076;2022-08-04T06:17:48;81.00;;;76.88;;
64157;SDS011;50449;51.528;5.076;2022-08-04T06:20:16;82.32;;;77.88;;
64157;SDS011;50449;51.528;5.076;2022-08-04T06:22:44;76.10;;;72.25;;
64157;SDS011;50449;51.528;5.076;2022-08-04T06:25:15;75.85;;;72.30;;
64157;SDS011;50449;51.528;5.076;2022-08-04T06:27:45;80.28;;;75.57;;
64157;SDS011;50449;51.528;5.076;2022-08-04T06:30:11;77.13;;;72.88;;
64157;SDS011;50449;51.528;5.076;2022-08-04T06:32:41;73.30;;;69.57;;
64157;SDS011;50449;51.528;5.076;2022-08-04T06:35:12;75.78;;;71.82;;
64157;SDS011;50449;51.528;5.076;2022-08-04T06:37:39;73.68;;;70.13;;
64157;SDS011;50449;51.528;5.076;2022-08-04T06:40:06;76.50;;;72.82;;
64157;SDS011;50449;51.528;5.076;2022-08-04T06:42:33;77.70;;;74.00;;
64157;SDS011;50449;51.528;5.076;2022-08-04T06:45:00;73.22;;;69.22;;
64157;SDS011;50449;51.528;5.076;2022-08-04T06:47:26;74.38;;;70.22;;
64157;SDS011;50449;51.528;5.076;2022-08-04T06:49:54;74.60;;;70.43;;
64157;SDS011;50449;51.528;5.076;2022-08-04T06:52:20;75.70;;;70.93;;
64157;SDS011;50449;51.528;5.076;2022-08-04T06:54:46;72.82;;;68.93;;
64157;SDS011;50449;51.528;5.076;2022-08-04T06:57:13;76.50;;;72.32;;
64157;SDS011;50449;51.528;5.076;2022-08-04T06:59:42;76.63;;;72.28;;
64157;SDS011;50449;51.528;5.076;2022-08-04T07:02:13;74.85;;;71.15;;
64157;SDS011;50449;51.528;5.076;2022-08-04T07:04:43;77.45;;;73.38;;
64157;SDS011;50449;51.528;5.076;2022-08-04T07:07:10;74.78;;;71.07;;
64157;SDS011;50449;51.528;5.076;2022-08-04T07:09:36;73.57;;;70.07;;
64157;SDS011;50449;51.528;5.076;2022-08-04T07:12:03;79.65;;;75.72;;
64157;SDS011;50449;51.528;5.076;2022-08-04T07:14:30;74.17;;;70.10;;
64157;SDS011;50449;51.528;5.076;2022-08-04T07:17:00;74.68;;;70.65;;
64157;SDS011;50449;51.528;5.076;2022-08-04T07:19:30;74.97;;;70.68;;
64157;SDS011;50449;51.528;5.076;2022-08-04T07:21:57;71.97;;;68.47;;
64157;SDS011;50449;51.528;5.076;2022-08-04T07:24:35;77.47;;;73.38;;
64157;SDS011;50449;51.528;5.076;2022-08-04T07:27:02;74.93;;;71.25;;
64157;SDS011;50449;51.528;5.076;2022-08-04T07:29:29;77.78;;;73.47;;
64157;SDS011;50449;51.528;5.076;2022-08-04T07:31:55;74.82;;;71.10;;
64157;SDS011;50449;51.528;5.076;2022-08-04T07:34:22;74.03;;;70.20;;
64157;SDS011;50449;51.528;5.076;2022-08-04T07:36:49;75.13;;;71.13;;
64157;SDS011;50449;51.528;5.076;2022-08-04T07:39:19;76.80;;;72.72;;
64157;SDS011;50449;51.528;5.076;2022-08-04T07:41:46;78.90;;;74.25;;
64157;SDS011;50449;51.528;5.076;2022-08-04T07:44:13;75.70;;;71.47;;
64157;SDS011;50449;51.528;5.076;2022-08-04T07:46:40;76.35;;;72.43;;
64157;SDS011;50449;51.528;5.076;2022-08-04T07:49:06;76.40;;;72.60;;
64157;SDS011;50449;51.528;5.076;2022-08-04T07:51:32;75.03;;;71.32;;
64157;SDS011;50449;51.528;5.076;2022-08-04T07:53:59;74.15;;;70.47;;
64157;SDS011;50449;51.528;5.076;2022-08-04T07:56:27;77.63;;;73.30;;
64157;SDS011;50449;51.528;5.076;2022-08-04T07:58:53;78.90;;;74.88;;
64157;SDS011;50449;51.528;5.076;2022-08-04T08:01:18;74.85;;;71.15;;
64157;SDS011;50449;51.528;5.076;2022-08-04T08:03:45;73.90;;;69.82;;
64157;SDS011;50449;51.528;5.076;2022-08-04T08:06:11;77.15;;;72.95;;
64157;SDS011;50449;51.528;5.076;2022-08-04T08:08:37;77.07;;;73.05;;
64157;SDS011;50449;51.528;5.076;2022-08-04T08:11:04;75.25;;;71.32;;
64157;SDS011;50449;51.528;5.076;2022-08-04T08:13:30;75.15;;;71.63;;
64157;SDS011;50449;51.528;5.076;2022-08-04T08:15:56;80.07;;;76.00;;
64157;SDS011;50449;51.528;5.076;2022-08-04T08:18:23;80.32;;;76.25;;
64157;SDS011;50449;51.528;5.076;2022-08-04T08:20:49;79.88;;;75.90;;
64157;SDS011;50449;51.528;5.076;2022-08-04T08:23:16;80.10;;;76.13;;
64157;SDS011;50449;51.528;5.076;2022-08-04T08:25:42;76.30;;;72.25;;
64157;SDS011;50449;51.528;5.076;2022-08-04T08:28:07;77.47;;;73.25;;
64157;SDS011;50449;51.528;5.076;2022-08-04T08:30:34;75.57;;;71.72;;
64157;SDS011;50449;51.528;5.076;2022-08-04T08:33:00;79.50;;;75.43;;
64157;SDS011;50449;51.528;5.076;2022-08-04T08:37:57;77.63;;;73.65;;
64157;SDS011;50449;51.528;5.076;2022-08-04T08:41:14;78.20;;;74.30;;
64157;SDS011;50449;51.528;5.076;2022-08-04T08:46:19;81.00;;;77.15;;
64157;SDS011;50449;51.528;5.076;2022-08-04T08:51:54;80.43;;;76.63;;
64157;SDS011;50449;51.528;5.076;2022-08-04T08:54:46;82.88;;;78.70;;
64157;SDS011;50449;51.528;5.076;2022-08-04T09:06:08;78.93;;;74.97;;
64157;SDS011;50449;51.528;5.076;2022-08-04T09:11:43;86.45;;;82.03;;
64157;SDS011;50449;51.528;5.076;2022-08-04T09:17:25;83.05;;;79.15;;
64157;SDS011;50449;51.528;5.076;2022-08-04T09:20:42;86.20;;;81.90;;
64157;SDS011;50449;51.528;5.076;2022-08-04T09:22:44;89.90;;;85.60;;
64157;SDS011;50449;51.528;5.076;2022-08-04T09:30:20;85.25;;;81.25;;
64157;SDS011;50449;51.528;5.076;2022-08-04T09:40:51;85.22;;;81.35;;
64157;SDS011;50449;51.528;5.076;2022-08-04T09:51:23;87.35;;;83.25;;
64157;SDS011;50449;51.528;5.076;2022-08-04T09:54:08;89.38;;;85.28;;
64157;SDS011;50449;51.528;5.076;2022-08-04T09:56:59;84.78;;;80.60;;
64157;SDS011;50449;51.528;5.076;2022-08-04T09:59:43;89.72;;;85.63;;
64157;SDS011;50449;51.528;5.076;2022-08-04T10:02:23;88.88;;;84.57;;
64157;SDS011;50449;51.528;5.076;2022-08-04T10:04:49;87.82;;;83.72;;
64157;SDS011;50449;51.528;5.076;2022-08-04T10:24:55;89.93;;;85.32;;
64157;SDS011;50449;51.528;5.076;2022-08-04T10:27:29;87.25;;;83.22;;
64157;SDS011;50449;51.528;5.076;2022-08-04T10:32:44;94.22;;;89.40;;
64157;SDS011;50449;51.528;5.076;2022-08-04T10:35:23;88.05;;;83.75;;
64157;SDS011;50449;51.528;5.076;2022-08-04T10:46:11;89.10;;;84.55;;
64157;SDS011;50449;51.528;5.076;2022-08-04T10:54:12;91.43;;;87.05;;
64157;SDS011;50449;51.528;5.076;2022-08-04T10:56:49;84.25;;;80.15;;
64157;SDS011;50449;51.528;5.076;2022-08-04T10:59:36;93.00;;;88.40;;
64157;SDS011;50449;51.528;5.076;2022-08-04T11:02:17;88.10;;;83.77;;
64157;SDS011;50449;51.528;5.076;2022-08-04T11:04:54;88.63;;;84.22;;
64157;SDS011;50449;51.528;5.076;2022-08-04T11:07:46;90.70;;;86.30;;
64157;SDS011;50449;51.528;5.076;2022-08-04T11:10:15;89.65;;;85.60;;
64157;SDS011;50449;51.528;5.076;2022-08-04T11:12:47;91.28;;;87.25;;
64157;SDS011;50449;51.528;5.076;2022-08-04T11:15:19;88.97;;;84.50;;
64157;SDS011;50449;51.528;5.076;2022-08-04T11:17:57;89.85;;;85.70;;
64157;SDS011;50449;51.528;5.076;2022-08-04T11:20:27;94.25;;;89.18;;
64157;SDS011;50449;51.528;5.076;2022-08-04T11:23:04;88.03;;;83.63;;
64157;SDS011;50449;51.528;5.076;2022-08-04T11:25:42;95.15;;;90.78;;
64157;SDS011;50449;51.528;5.076;2022-08-04T11:30:41;92.35;;;87.95;;
64157;SDS011;50449;51.528;5.076;2022-08-04T11:36:04;86.90;;;83.00;;
64157;SDS011;50449;51.528;5.076;2022-08-04T11:41:46;87.85;;;83.65;;
64157;SDS011;50449;51.528;5.076;2022-08-04T11:44:28;86.25;;;82.20;;
64157;SDS011;50449;51.528;5.076;2022-08-04T11:50:02;84.28;;;80.30;;
64157;SDS011;50449;51.528;5.076;2022-08-04T11:52:44;86.95;;;82.78;;
64157;SDS011;50449;51.528;5.076;2022-08-04T11:55:12;89.88;;;85.18;;
64157;SDS011;50449;51.528;5.076;2022-08-04T11:57:40;89.28;;;84.88;;
64157;SDS011;50449;51.528;5.076;2022-08-04T12:00:07;85.75;;;81.88;;
64157;SDS011;50449;51.528;5.076;2022-08-04T12:02:49;90.78;;;86.60;;
64157;SDS011;50449;51.528;5.076;2022-08-04T12:05:40;86.40;;;82.05;;
64157;SDS011;50449;51.528;5.076;2022-08-04T12:08:28;85.28;;;81.43;;
64157;SDS011;50449;51.528;5.076;2022-08-04T12:13:52;88.95;;;84.85;;
64157;SDS011;50449;51.528;5.076;2022-08-04T12:16:34;87.57;;;83.43;;
64157;SDS011;50449;51.528;5.076;2022-08-04T12:19:16;90.78;;;86.25;;
64157;SDS011;50449;51.528;5.076;2022-08-04T12:22:03;86.85;;;82.50;;
64157;SDS011;50449;51.528;5.076;2022-08-04T12:24:43;90.88;;;86.47;;
64157;SDS011;50449;51.528;5.076;2022-08-04T12:27:19;95.38;;;90.40;;
64157;SDS011;50449;51.528;5.076;2022-08-04T12:29:48;87.63;;;82.88;;
64157;SDS011;50449;51.528;5.076;2022-08-04T12:32:23;90.88;;;86.63;;
64157;SDS011;50449;51.528;5.076;2022-08-04T12:37:40;88.70;;;84.18;;
64157;SDS011;50449;51.528;5.076;2022-08-04T12:40:15;87.82;;;83.53;;
64157;SDS011;50449;51.528;5.076;2022-08-04T12:43:01;91.10;;;86.95;;
64157;SDS011;50449;51.528;5.076;2022-08-04T12:45:30;89.15;;;85.05;;
64157;SDS011;50449;51.528;5.076;2022-08-04T12:47:58;86.70;;;82.67;;
64157;SDS011;50449;51.528;5.076;2022-08-04T12:50:25;88.00;;;83.43;;
64157;SDS011;50449;51.528;5.076;2022-08-04T12:52:53;87.78;;;83.35;;
64157;SDS011;50449;51.528;5.076;2022-08-04T12:55:21;89.05;;;84.82;;
64157;SDS011;50449;51.528;5.076;2022-08-04T12:57:49;91.63;;;87.03;;
64157;SDS011;50449;51.528;5.076;2022-08-04T13:00:23;93.15;;;88.95;;
64157;SDS011;50449;51.528;5.076;2022-08-04T13:02:53;93.22;;;88.82;;
64157;SDS011;50449;51.528;5.076;2022-08-04T13:05:29;90.07;;;85.78;;
64157;SDS011;50449;51.528;5.076;2022-08-04T13:07:57;88.78;;;84.57;;
64157;SDS011;50449;51.528;5.076;2022-08-04T13:10:25;94.28;;;89.70;;
64157;SDS011;50449;51.528;5.076;2022-08-04T13:12:55;90.00;;;85.70;;
64157;SDS011;50449;51.528;5.076;2022-08-04T13:15:23;94.57;;;90.00;;
64157;SDS011;50449;51.528;5.076;2022-08-04T13:20:37;92.82;;;88.43;;
64157;SDS011;50449;51.528;5.076;2022-08-04T13:23:10;88.95;;;84.72;;
64157;SDS011;50449;51.528;5.076;2022-08-04T13:25:42;91.10;;;86.80;;
64157;SDS011;50449;51.528;5.076;2022-08-04T13:28:14;94.38;;;89.57;;
64157;SDS011;50449;51.528;5.076;2022-08-04T13:30:46;92.40;;;87.97;;
64157;SDS011;50449;51.528;5.076;2022-08-04T13:33:17;94.60;;;90.25;;
64157;SDS011;50449;51.528;5.076;2022-08-04T13:35:44;95.90;;;91.03;;
64157;SDS011;50449;51.528;5.076;2022-08-04T13:38:11;96.93;;;92.32;;
64157;SDS011;50449;51.528;5.076;2022-08-04T13:40:38;98.03;;;93.38;;
64157;SDS011;50449;51.528;5.076;2022-08-04T13:43:06;93.47;;;89.00;;
64157;SDS011;50449;51.528;5.076;2022-08-04T13:45:34;95.82;;;91.18;;
64157;SDS011;50449;51.528;5.076;2022-08-04T13:48:02;99.32;;;94.93;;
64157;SDS011;50449;51.528;5.076;2022-08-04T13:50:29;93.85;;;89.63;;
64157;SDS011;50449;51.528;5.076;2022-08-04T13:52:58;96.93;;;92.40;;
64157;SDS011;50449;51.528;5.076;2022-08-04T13:55:26;98.68;;;94.05;;
64157;SDS011;50449;51.528;5.076;2022-08-04T13:58:10;96.10;;;91.50;;
64157;SDS011;50449;51.528;5.076;2022-08-04T14:00:51;98.60;;;94.00;;
64157;SDS011;50449;51.528;5.076;2022-08-04T14:03:24;99.93;;;94.90;;
64157;SDS011;50449;51.528;5.076;2022-08-04T14:06:06;95.90;;;91.53;;
64157;SDS011;50449;51.528;5.076;2022-08-04T14:08:53;100.43;;;96.00;;
64157;SDS011;50449;51.528;5.076;2022-08-04T14:14:20;98.38;;;93.80;;
64157;SDS011;50449;51.528;5.076;2022-08-04T14:16:59;99.03;;;94.43;;
64157;SDS011;50449;51.528;5.076;2022-08-04T14:19:52;100.57;;;95.60;;
64157;SDS011;50449;51.528;5.076;2022-08-04T14:24:55;98.55;;;93.95;;
64157;SDS011;50449;51.528;5.076;2022-08-04T14:27:20;97.28;;;92.68;;
64157;SDS011;50449;51.528;5.076;2022-08-04T14:29:46;99.72;;;95.13;;
64157;SDS011;50449;51.528;5.076;2022-08-04T14:32:11;99.95;;;93.60;;
64157;SDS011;50449;51.528;5.076;2022-08-04T14:34:37;100.90;;;96.10;;
64157;SDS011;50449;51.528;5.076;2022-08-04T14:37:08;98.05;;;93.65;;
64157;SDS011;50449;51.528;5.076;2022-08-04T14:39:35;103.05;;;98.45;;
64157;SDS011;50449;51.528;5.076;2022-08-04T14:42:02;99.53;;;95.18;;
64157;SDS011;50449;51.528;5.076;2022-08-04T14:44:28;99.97;;;95.28;;
64157;SDS011;50449;51.528;5.076;2022-08-04T14:46:54;99.05;;;94.20;;
64157;SDS011;50449;51.528;5.076;2022-08-04T14:49:21;101.55;;;96.78;;
64157;SDS011;50449;51.528;5.076;2022-08-04T14:51:57;100.97;;;96.50;;
64157;SDS011;50449;51.528;5.076;2022-08-04T14:54:29;101.95;;;97.25;;
64157;SDS011;50449;51.528;5.076;2022-08-04T14:57:05;100.55;;;95.75;;
64157;SDS011;50449;51.528;5.076;2022-08-04T14:59:45;100.82;;;96.22;;
64157;SDS011;50449;51.528;5.076;2022-08-04T15:02:12;101.40;;;96.75;;
64157;SDS011;50449;51.528;5.076;2022-08-04T15:04:39;102.97;;;98.47;;
64157;SDS011;50449;51.528;5.076;2022-08-04T15:07:09;101.13;;;96.60;;
64157;SDS011;50449;51.528;5.076;2022-08-04T15:09:35;103.72;;;99.07;;
64157;SDS011;50449;51.528;5.076;2022-08-04T15:12:01;105.13;;;100.43;;
64157;SDS011;50449;51.528;5.076;2022-08-04T15:14:28;102.55;;;97.85;;
64157;SDS011;50449;51.528;5.076;2022-08-04T15:16:54;101.60;;;97.00;;
64157;SDS011;50449;51.528;5.076;2022-08-04T15:19:19;104.90;;;100.10;;
64157;SDS011;50449;51.528;5.076;2022-08-04T15:21:46;102.45;;;97.65;;
64157;SDS011;50449;51.528;5.076;2022-08-04T15:24:12;103.43;;;98.50;;
64157;SDS011;50449;51.528;5.076;2022-08-04T15:26:41;100.97;;;95.95;;
64157;SDS011;50449;51.528;5.076;2022-08-04T15:29:13;98.53;;;94.05;;
64157;SDS011;50449;51.528;5.076;2022-08-04T15:31:41;102.35;;;96.78;;
64157;SDS011;50449;51.528;5.076;2022-08-04T15:34:08;100.00;;;95.40;;
64157;SDS011;50449;51.528;5.076;2022-08-04T15:36:37;102.50;;;98.05;;
64157;SDS011;50449;51.528;5.076;2022-08-04T15:39:48;100.97;;;96.07;;
64157;SDS011;50449;51.528;5.076;2022-08-04T15:45:19;100.50;;;96.10;;
64157;SDS011;50449;51.528;5.076;2022-08-04T15:50:25;102.50;;;97.55;;
64157;SDS011;50449;51.528;5.076;2022-08-04T15:55:32;99.82;;;95.43;;
64157;SDS011;50449;51.528;5.076;2022-08-04T15:57:59;98.47;;;93.97;;
64157;SDS011;50449;51.528;5.076;2022-08-04T16:19:04;106.60;;;101.70;;
64157;SDS011;50449;51.528;5.076;2022-08-04T16:26:57;106.00;;;101.30;;
64157;SDS011;50449;51.528;5.076;2022-08-04T16:34:37;102.13;;;97.40;;
64157;SDS011;50449;51.528;5.076;2022-08-04T16:37:05;104.53;;;99.68;;
64157;SDS011;50449;51.528;5.076;2022-08-04T16:39:35;104.05;;;99.35;;
64157;SDS011;50449;51.528;5.076;2022-08-04T16:47:59;99.28;;;94.88;;
64157;SDS011;50449;51.528;5.076;2022-08-04T16:50:19;101.82;;;97.35;;
64157;SDS011;50449;51.528;5.076;2022-08-04T16:52:47;106.05;;;101.32;;
64157;SDS011;50449;51.528;5.076;2022-08-04T16:55:14;100.35;;;95.75;;
64157;SDS011;50449;51.528;5.076;2022-08-04T16:57:41;103.70;;;99.00;;
64157;SDS011;50449;51.528;5.076;2022-08-04T17:00:10;100.97;;;96.55;;
64157;SDS011;50449;51.528;5.076;2022-08-04T17:02:36;102.60;;;98.00;;
64157;SDS011;50449;51.528;5.076;2022-08-04T17:05:01;100.00;;;95.50;;
64157;SDS011;50449;51.528;5.076;2022-08-04T17:07:27;100.35;;;95.90;;
64157;SDS011;50449;51.528;5.076;2022-08-04T17:09:52;102.72;;;98.15;;
64157;SDS011;50449;51.528;5.076;2022-08-04T17:12:18;97.15;;;92.55;;
64157;SDS011;50449;51.528;5.076;2022-08-04T17:14:44;98.38;;;94.13;;
64157;SDS011;50449;51.528;5.076;2022-08-04T17:17:09;98.20;;;93.80;;
64157;SDS011;50449;51.528;5.076;2022-08-04T17:19:35;101.43;;;96.82;;
64157;SDS011;50449;51.528;5.076;2022-08-04T17:22:02;99.20;;;94.50;;
64157;SDS011;50449;51.528;5.076;2022-08-04T17:24:31;101.97;;;97.57;;
64157;SDS011;50449;51.528;5.076;2022-08-04T17:27:02;102.63;;;98.13;;
64157;SDS011;50449;51.528;5.076;2022-08-04T17:29:28;99.22;;;94.88;;
64157;SDS011;50449;51.528;5.076;2022-08-04T17:31:54;102.38;;;97.85;;
64157;SDS011;50449;51.528;5.076;2022-08-04T17:34:20;99.03;;;94.63;;
64157;SDS011;50449;51.528;5.076;2022-08-04T17:36:45;100.43;;;95.95;;
64157;SDS011;50449;51.528;5.076;2022-08-04T17:39:14;102.40;;;97.75;;
64157;SDS011;50449;51.528;5.076;2022-08-04T17:41:44;99.45;;;95.07;;
64157;SDS011;50449;51.528;5.076;2022-08-04T17:44:10;101.38;;;96.78;;
64157;SDS011;50449;51.528;5.076;2022-08-04T17:46:36;99.55;;;94.97;;
64157;SDS011;50449;51.528;5.076;2022-08-04T17:49:23;99.63;;;95.13;;
64157;SDS011;50449;51.528;5.076;2022-08-04T17:51:55;99.80;;;95.40;;
64157;SDS011;50449;51.528;5.076;2022-08-04T17:56:55;99.72;;;95.07;;
64157;SDS011;50449;51.528;5.076;2022-08-04T17:59:25;103.45;;;98.88;;
64157;SDS011;50449;51.528;5.076;2022-08-04T18:01:57;97.13;;;92.93;;
64157;SDS011;50449;51.528;5.076;2022-08-04T18:09:27;101.13;;;96.65;;
64157;SDS011;50449;51.528;5.076;2022-08-04T18:11:55;99.18;;;94.55;;
64157;SDS011;50449;51.528;5.076;2022-08-04T18:14:25;93.25;;;89.13;;
64157;SDS011;50449;51.528;5.076;2022-08-04T18:17:07;94.95;;;90.65;;
64157;SDS011;50449;51.528;5.076;2022-08-04T18:19:33;98.95;;;94.55;;
64157;SDS011;50449;51.528;5.076;2022-08-04T18:22:00;97.07;;;92.78;;
64157;SDS011;50449;51.528;5.076;2022-08-04T18:24:27;98.63;;;94.07;;
64157;SDS011;50449;51.528;5.076;2022-08-04T18:26:54;99.63;;;95.18;;
64157;SDS011;50449;51.528;5.076;2022-08-04T18:29:19;94.43;;;90.30;;
64157;SDS011;50449;51.528;5.076;2022-08-04T18:31:45;96.55;;;92.22;;
64157;SDS011;50449;51.528;5.076;2022-08-04T18:34:10;96.65;;;92.07;;
64157;SDS011;50449;51.528;5.076;2022-08-04T18:36:36;94.05;;;89.95;;
64157;SDS011;50449;51.528;5.076;2022-08-04T18:39:03;96.47;;;92.18;;
64157;SDS011;50449;51.528;5.076;2022-08-04T18:41:30;94.93;;;90.68;;
64157;SDS011;50449;51.528;5.076;2022-08-04T18:43:56;96.53;;;92.30;;
64157;SDS011;50449;51.528;5.076;2022-08-04T18:46:23;100.75;;;96.25;;
64157;SDS011;50449;51.528;5.076;2022-08-04T18:48:48;91.88;;;87.78;;
64157;SDS011;50449;51.528;5.076;2022-08-04T18:51:14;94.93;;;89.90;;
64157;SDS011;50449;51.528;5.076;2022-08-04T18:53:40;94.57;;;90.38;;
64157;SDS011;50449;51.528;5.076;2022-08-04T18:56:05;94.55;;;90.35;;
64157;SDS011;50449;51.528;5.076;2022-08-04T18:58:31;94.95;;;90.75;;
64157;SDS011;50449;51.528;5.076;2022-08-04T19:00:56;95.57;;;91.22;;
64157;SDS011;50449;51.528;5.076;2022-08-04T19:03:22;92.07;;;87.55;;
64157;SDS011;50449;51.528;5.076;2022-08-04T19:05:47;91.28;;;87.10;;
64157;SDS011;50449;51.528;5.076;2022-08-04T19:08:13;98.45;;;93.68;;
64157;SDS011;50449;51.528;5.076;2022-08-04T19:10:38;95.07;;;90.55;;
64157;SDS011;50449;51.528;5.076;2022-08-04T19:13:03;90.82;;;86.63;;
64157;SDS011;50449;51.528;5.076;2022-08-04T19:15:29;92.57;;;88.50;;
64157;SDS011;50449;51.528;5.076;2022-08-04T19:17:55;93.50;;;89.30;;
64157;SDS011;50449;51.528;5.076;2022-08-04T19:20:21;93.72;;;89.53;;
64157;SDS011;50449;51.528;5.076;2022-08-04T19:22:46;98.13;;;93.72;;
64157;SDS011;50449;51.528;5.076;2022-08-04T19:25:11;92.47;;;88.35;;
64157;SDS011;50449;51.528;5.076;2022-08-04T19:27:37;92.53;;;88.25;;
64157;SDS011;50449;51.528;5.076;2022-08-04T19:30:02;92.45;;;88.25;;
64157;SDS011;50449;51.528;5.076;2022-08-04T19:32:28;91.07;;;87.03;;
64157;SDS011;50449;51.528;5.076;2022-08-04T19:34:53;96.38;;;92.13;;
64157;SDS011;50449;51.528;5.076;2022-08-04T19:37:19;94.25;;;89.95;;
64157;SDS011;50449;51.528;5.076;2022-08-04T19:39:44;91.90;;;87.25;;